sensor_id;sensor_type;location;lat;lon;timestamp;pressure;altitude;pressure_sealevel;temperature;humidity
61674;BME280;47573;43.832;5.974;2023-04-30T00:02:11;94867.13;;;27.50;55.59
61674;BME280;47573;43.832;5.974;2023-04-30T00:08:53;94869.84;;;27.50;55.43
61674;BME280;47573;43.832;5.974;2023-04-30T00:15:34;94864.94;;;27.47;55.68
61674;BME280;47573;43.832;5.974;2023-04-30T00:22:14;94850.69;;;27.45;55.79
61674;BME280;47573;43.832;5.974;2023-04-30T00:28:56;94848.47;;;27.47;55.53
61674;BME280;47573;43.832;5.974;2023-04-30T00:35:37;94855.63;;;27.43;55.73
61674;BME280;47573;43.832;5.974;2023-04-30T00:42:17;94849.06;;;27.44;55.58
61674;BME280;47573;43.832;5.974;2023-04-30T00:48:59;94845.53;;;27.38;55.90
61674;BME280;47573;43.832;5.974;2023-04-30T00:55:40;94842.50;;;27.40;55.87
61674;BME280;47573;43.832;5.974;2023-04-30T01:02:21;94835.66;;;27.37;56.19
61674;BME280;47573;43.832;5.974;2023-04-30T01:09:03;94831.25;;;27.36;56.39
61674;BME280;47573;43.832;5.974;2023-04-30T01:15:46;94826.59;;;27.37;56.52
61674;BME280;47573;43.832;5.974;2023-04-30T01:22:35;94821.66;;;27.34;56.60
61674;BME280;47573;43.832;5.974;2023-04-30T01:29:18;94822.78;;;27.38;56.80
61674;BME280;47573;43.832;5.974;2023-04-30T01:36:12;94823.31;;;27.35;56.74
61674;BME280;47573;43.832;5.974;2023-04-30T01:43:06;94829.34;;;27.32;56.92
61674;BME280;47573;43.832;5.974;2023-04-30T01:50:03;94826.63;;;27.27;57.26
61674;BME280;47573;43.832;5.974;2023-04-30T01:56:53;94830.44;;;27.31;57.03
61674;BME280;47573;43.832;5.974;2023-04-30T02:03:38;94828.28;;;27.28;57.04
61674;BME280;47573;43.832;5.974;2023-04-30T02:10:21;94830.47;;;27.26;57.40
61674;BME280;47573;43.832;5.974;2023-04-30T02:17:02;94829.38;;;27.27;57.21
61674;BME280;47573;43.832;5.974;2023-04-30T02:23:42;94832.69;;;27.24;57.20
61674;BME280;47573;43.832;5.974;2023-04-30T02:30:24;94827.22;;;27.24;57.17
61674;BME280;47573;43.832;5.974;2023-04-30T02:37:05;94827.75;;;27.21;57.59
61674;BME280;47573;43.832;5.974;2023-04-30T02:43:45;94826.94;;;27.20;57.36
61674;BME280;47573;43.832;5.974;2023-04-30T02:50:27;94823.66;;;27.18;57.47
61674;BME280;47573;43.832;5.974;2023-04-30T02:57:07;94828.31;;;27.18;57.55
61674;BME280;47573;43.832;5.974;2023-04-30T03:03:48;94809.41;;;27.16;57.37
61674;BME280;47573;43.832;5.974;2023-04-30T03:10:30;94804.16;;;27.20;57.52
61674;BME280;47573;43.832;5.974;2023-04-30T03:17:10;94810.25;;;27.12;57.37
61674;BME280;47573;43.832;5.974;2023-04-30T03:23:51;94811.31;;;27.16;57.47
61674;BME280;47573;43.832;5.974;2023-04-30T03:30:33;94806.97;;;27.09;57.66
61674;BME280;47573;43.832;5.974;2023-04-30T03:37:13;94808.09;;;27.08;57.53
61674;BME280;47573;43.832;5.974;2023-04-30T03:43:54;94806.44;;;27.07;57.60
61674;BME280;47573;43.832;5.974;2023-04-30T03:50:36;94810.28;;;27.06;57.40
61674;BME280;47573;43.832;5.974;2023-04-30T03:57:17;94804.22;;;27.09;57.31
61674;BME280;47573;43.832;5.974;2023-04-30T04:03:58;94810.56;;;27.05;57.47
61674;BME280;47573;43.832;5.974;2023-04-30T04:10:39;94811.91;;;27.07;57.25
61674;BME280;47573;43.832;5.974;2023-04-30T04:17:20;94814.66;;;27.07;57.36
61674;BME280;47573;43.832;5.974;2023-04-30T04:24:00;94815.25;;;26.99;57.32
61674;BME280;47573;43.832;5.974;2023-04-30T04:30:42;94819.88;;;26.99;57.58
61674;BME280;47573;43.832;5.974;2023-04-30T04:37:23;94826.72;;;27.01;57.19
61674;BME280;47573;43.832;5.974;2023-04-30T04:44:04;94832.50;;;27.00;57.06
61674;BME280;47573;43.832;5.974;2023-04-30T04:50:46;94837.72;;;26.96;57.53
61674;BME280;47573;43.832;5.974;2023-04-30T04:57:26;94845.66;;;26.98;57.17
61674;BME280;47573;43.832;5.974;2023-04-30T05:04:07;94849.50;;;26.97;57.55
61674;BME280;47573;43.832;5.974;2023-04-30T05:10:49;94859.13;;;26.89;57.72
61674;BME280;47573;43.832;5.974;2023-04-30T05:17:29;94861.31;;;26.87;57.46
61674;BME280;47573;43.832;5.974;2023-04-30T05:24:10;94864.06;;;26.92;57.61
61674;BME280;47573;43.832;5.974;2023-04-30T05:30:51;94871.97;;;26.89;57.46
61674;BME280;47573;43.832;5.974;2023-04-30T05:37:32;94871.72;;;26.90;57.45
61674;BME280;47573;43.832;5.974;2023-04-30T05:44:12;94878.84;;;26.91;57.61
61674;BME280;47573;43.832;5.974;2023-04-30T05:50:54;94873.91;;;26.88;57.42
61674;BME280;47573;43.832;5.974;2023-04-30T05:57:35;94875.81;;;26.93;57.57
61674;BME280;47573;43.832;5.974;2023-04-30T06:04:15;94867.38;;;26.79;57.95
61674;BME280;47573;43.832;5.974;2023-04-30T06:10:57;94864.06;;;26.82;57.51
61674;BME280;47573;43.832;5.974;2023-04-30T06:17:38;94879.41;;;26.78;57.67
61674;BME280;47573;43.832;5.974;2023-04-30T06:24:18;94882.16;;;26.83;57.51
61674;BME280;47573;43.832;5.974;2023-04-30T06:31:00;94881.59;;;26.81;57.34
61674;BME280;47573;43.832;5.974;2023-04-30T06:37:41;94884.34;;;26.81;57.43
61674;BME280;47573;43.832;5.974;2023-04-30T06:44:21;94881.88;;;26.80;57.42
61674;BME280;47573;43.832;5.974;2023-04-30T06:51:03;94885.44;;;26.85;57.42
61674;BME280;47573;43.832;5.974;2023-04-30T06:57:43;94887.63;;;26.83;57.61
61674;BME280;47573;43.832;5.974;2023-04-30T07:04:24;94886.50;;;26.84;57.55
61674;BME280;47573;43.832;5.974;2023-04-30T07:11:06;94899.97;;;26.61;58.09
61674;BME280;47573;43.832;5.974;2023-04-30T07:17:46;94893.41;;;26.26;58.32
61674;BME280;47573;43.832;5.974;2023-04-30T07:24:27;94905.09;;;25.87;60.00
61674;BME280;47573;43.832;5.974;2023-04-30T07:31:09;94911.09;;;25.69;60.13
61674;BME280;47573;43.832;5.974;2023-04-30T07:37:49;94913.28;;;25.62;59.94
61674;BME280;47573;43.832;5.974;2023-04-30T07:44:30;94914.88;;;25.52;60.31
61674;BME280;47573;43.832;5.974;2023-04-30T07:51:12;94918.69;;;25.51;60.57
61674;BME280;47573;43.832;5.974;2023-04-30T07:57:52;94920.31;;;25.42;60.40
61674;BME280;47573;43.832;5.974;2023-04-30T08:04:33;94926.81;;;25.36;60.50
61674;BME280;47573;43.832;5.974;2023-04-30T08:11:15;94926.75;;;25.26;61.09
61674;BME280;47573;43.832;5.974;2023-04-30T08:17:56;94921.28;;;25.26;61.34
61674;BME280;47573;43.832;5.974;2023-04-30T08:24:36;94930.16;;;25.48;60.55
61674;BME280;47573;43.832;5.974;2023-04-30T08:31:18;94933.00;;;25.89;59.37
61674;BME280;47573;43.832;5.974;2023-04-30T08:37:58;94941.25;;;25.99;58.94
61674;BME280;47573;43.832;5.974;2023-04-30T08:44:39;94948.91;;;26.02;58.80
61674;BME280;47573;43.832;5.974;2023-04-30T08:51:22;94955.22;;;26.07;59.36
61674;BME280;47573;43.832;5.974;2023-04-30T08:58:03;94956.63;;;26.15;59.56
61674;BME280;47573;43.832;5.974;2023-04-30T09:04:43;94966.75;;;26.24;59.72
61674;BME280;47573;43.832;5.974;2023-04-30T09:11:28;94963.75;;;26.26;59.95
61674;BME280;47573;43.832;5.974;2023-04-30T09:18:11;94973.03;;;26.15;60.44
61674;BME280;47573;43.832;5.974;2023-04-30T09:24:51;94975.81;;;26.30;59.86
61674;BME280;47573;43.832;5.974;2023-04-30T09:31:33;94976.91;;;26.34;59.74
61674;BME280;47573;43.832;5.974;2023-04-30T09:38:27;94978.53;;;26.35;59.61
61674;BME280;47573;43.832;5.974;2023-04-30T09:45:10;94983.47;;;26.38;59.57
61674;BME280;47573;43.832;5.974;2023-04-30T09:51:56;94981.81;;;26.37;59.57
61674;BME280;47573;43.832;5.974;2023-04-30T09:58:37;94982.91;;;26.41;59.66
61674;BME280;47573;43.832;5.974;2023-04-30T10:05:18;94987.84;;;26.34;59.88
61674;BME280;47573;43.832;5.974;2023-04-30T10:12:01;94982.38;;;26.34;59.82
61674;BME280;47573;43.832;5.974;2023-04-30T10:18:42;94974.41;;;26.33;60.02
61674;BME280;47573;43.832;5.974;2023-04-30T10:25:24;94971.94;;;26.21;61.35
61674;BME280;47573;43.832;5.974;2023-04-30T10:32:06;94972.47;;;26.18;61.64
61674;BME280;47573;43.832;5.974;2023-04-30T10:38:47;94973.03;;;26.10;62.29
61674;BME280;47573;43.832;5.974;2023-04-30T10:45:34;94973.03;;;26.15;62.07
61674;BME280;47573;43.832;5.974;2023-04-30T10:52:25;94964.81;;;26.10;62.17
61674;BME280;47573;43.832;5.974;2023-04-30T10:59:07;94969.19;;;26.16;62.21
61674;BME280;47573;43.832;5.974;2023-04-30T11:05:48;94954.44;;;26.17;62.18
61674;BME280;47573;43.832;5.974;2023-04-30T11:12:30;94949.44;;;26.04;62.51
61674;BME280;47573;43.832;5.974;2023-04-30T11:19:12;94948.41;;;26.10;62.46
61674;BME280;47573;43.832;5.974;2023-04-30T11:25:54;94955.53;;;26.11;62.32
61674;BME280;47573;43.832;5.974;2023-04-30T11:32:36;94947.88;;;26.13;62.01
61674;BME280;47573;43.832;5.974;2023-04-30T11:39:17;94955.50;;;26.16;62.14
61674;BME280;47573;43.832;5.974;2023-04-30T11:46:04;94951.16;;;26.15;62.39
61674;BME280;47573;43.832;5.974;2023-04-30T11:52:49;94953.34;;;26.13;62.50
61674;BME280;47573;43.832;5.974;2023-04-30T11:59:30;94950.03;;;26.16;62.14
61674;BME280;47573;43.832;5.974;2023-04-30T12:06:11;94948.41;;;26.15;62.08
61674;BME280;47573;43.832;5.974;2023-04-30T12:13:01;94949.50;;;26.14;61.78
61674;BME280;47573;43.832;5.974;2023-04-30T12:19:42;94956.06;;;26.08;61.71
61674;BME280;47573;43.832;5.974;2023-04-30T12:26:22;94951.69;;;26.12;61.84
61674;BME280;47573;43.832;5.974;2023-04-30T12:33:04;94956.91;;;26.13;61.72
61674;BME280;47573;43.832;5.974;2023-04-30T12:39:46;94958.28;;;26.21;61.73
61674;BME280;47573;43.832;5.974;2023-04-30T12:46:26;94953.63;;;26.32;61.37
61674;BME280;47573;43.832;5.974;2023-04-30T12:53:08;94958.56;;;26.40;61.28
61674;BME280;47573;43.832;5.974;2023-04-30T12:59:56;94948.97;;;26.37;61.11
61674;BME280;47573;43.832;5.974;2023-04-30T13:06:37;94942.41;;;26.38;61.26
61674;BME280;47573;43.832;5.974;2023-04-30T13:13:19;94936.91;;;26.43;60.99
61674;BME280;47573;43.832;5.974;2023-04-30T13:20:00;94943.22;;;26.39;61.34
61674;BME280;47573;43.832;5.974;2023-04-30T13:26:40;94945.69;;;26.35;61.29
61674;BME280;47573;43.832;5.974;2023-04-30T13:33:22;94944.59;;;26.36;61.40
61674;BME280;47573;43.832;5.974;2023-04-30T13:40:03;94941.88;;;26.46;61.06
61674;BME280;47573;43.832;5.974;2023-04-30T13:46:44;94926.53;;;26.40;61.29
61674;BME280;47573;43.832;5.974;2023-04-30T13:53:26;94927.06;;;26.52;61.27
61674;BME280;47573;43.832;5.974;2023-04-30T14:00:07;94921.31;;;26.44;61.18
61674;BME280;47573;43.832;5.974;2023-04-30T14:06:48;94919.94;;;26.56;60.79
61674;BME280;47573;43.832;5.974;2023-04-30T14:13:30;94913.94;;;26.59;60.89
61674;BME280;47573;43.832;5.974;2023-04-30T14:20:11;94907.34;;;26.65;60.66
61674;BME280;47573;43.832;5.974;2023-04-30T14:26:52;94902.41;;;26.67;60.29
61674;BME280;47573;43.832;5.974;2023-04-30T14:33:34;94915.28;;;26.67;60.39
61674;BME280;47573;43.832;5.974;2023-04-30T14:40:14;94928.72;;;26.63;60.38
61674;BME280;47573;43.832;5.974;2023-04-30T14:46:55;94923.78;;;26.65;60.59
61674;BME280;47573;43.832;5.974;2023-04-30T14:53:37;94926.78;;;26.64;60.69
61674;BME280;47573;43.832;5.974;2023-04-30T15:00:17;94927.34;;;26.61;60.54
61674;BME280;47573;43.832;5.974;2023-04-30T15:06:58;94908.97;;;26.66;60.29
61674;BME280;47573;43.832;5.974;2023-04-30T15:13:39;94910.09;;;26.65;60.44
61674;BME280;47573;43.832;5.974;2023-04-30T15:20:20;94915.00;;;26.68;60.35
61674;BME280;47573;43.832;5.974;2023-04-30T15:27:01;94909.53;;;26.63;60.50
61674;BME280;47573;43.832;5.974;2023-04-30T15:33:43;94909.81;;;26.57;60.58
61674;BME280;47573;43.832;5.974;2023-04-30T15:40:23;94916.13;;;26.57;60.71
61674;BME280;47573;43.832;5.974;2023-04-30T15:47:04;94917.75;;;26.53;60.83
61674;BME280;47573;43.832;5.974;2023-04-30T15:53:46;94909.00;;;26.56;60.88
61674;BME280;47573;43.832;5.974;2023-04-30T16:00:26;94911.19;;;26.44;60.83
61674;BME280;47573;43.832;5.974;2023-04-30T16:07:07;94910.66;;;26.57;60.63
61674;BME280;47573;43.832;5.974;2023-04-30T16:13:48;94907.38;;;26.50;60.73
61674;BME280;47573;43.832;5.974;2023-04-30T16:20:29;94906.78;;;26.53;60.54
61674;BME280;47573;43.832;5.974;2023-04-30T16:27:10;94909.53;;;26.58;60.63
61674;BME280;47573;43.832;5.974;2023-04-30T16:33:52;94908.47;;;26.59;60.40
61674;BME280;47573;43.832;5.974;2023-04-30T16:40:32;94907.63;;;26.54;60.82
61674;BME280;47573;43.832;5.974;2023-04-30T16:47:13;94901.34;;;26.48;60.73
61674;BME280;47573;43.832;5.974;2023-04-30T16:53:55;94900.53;;;26.53;60.79
61674;BME280;47573;43.832;5.974;2023-04-30T17:00:35;94896.41;;;26.40;61.46
61674;BME280;47573;43.832;5.974;2023-04-30T17:07:16;94900.78;;;26.51;60.98
61674;BME280;47573;43.832;5.974;2023-04-30T17:13:57;94880.50;;;26.62;60.47
61674;BME280;47573;43.832;5.974;2023-04-30T17:20:38;94886.28;;;26.46;61.17
61674;BME280;47573;43.832;5.974;2023-04-30T17:27:19;94882.72;;;26.45;61.24
61674;BME280;47573;43.832;5.974;2023-04-30T17:34:02;94874.47;;;26.55;60.92
61674;BME280;47573;43.832;5.974;2023-04-30T17:40:42;94864.09;;;26.72;60.29
61674;BME280;47573;43.832;5.974;2023-04-30T17:47:23;94870.13;;;26.59;60.53
61674;BME280;47573;43.832;5.974;2023-04-30T17:54:04;94892.56;;;26.56;59.24
61674;BME280;47573;43.832;5.974;2023-04-30T18:00:45;94903.53;;;26.46;58.10
61674;BME280;47573;43.832;5.974;2023-04-30T18:07:26;94900.00;;;26.41;58.86
61674;BME280;47573;43.832;5.974;2023-04-30T18:14:08;94896.97;;;26.52;59.55
61674;BME280;47573;43.832;5.974;2023-04-30T18:20:48;94899.16;;;26.50;59.81
61674;BME280;47573;43.832;5.974;2023-04-30T18:27:29;94893.41;;;26.26;57.65
61674;BME280;47573;43.832;5.974;2023-04-30T18:34:11;94890.94;;;26.25;58.91
61674;BME280;47573;43.832;5.974;2023-04-30T18:40:52;94890.38;;;26.18;58.56
61674;BME280;47573;43.832;5.974;2023-04-30T18:47:32;94889.84;;;26.16;58.38
61674;BME280;47573;43.832;5.974;2023-04-30T18:54:14;94888.19;;;26.10;58.91
61674;BME280;47573;43.832;5.974;2023-04-30T19:00:55;94882.16;;;26.03;58.86
61674;BME280;47573;43.832;5.974;2023-04-30T19:07:36;94879.41;;;25.98;58.58
61674;BME280;47573;43.832;5.974;2023-04-30T19:14:18;94883.81;;;26.24;57.98
61674;BME280;47573;43.832;5.974;2023-04-30T19:20:59;94883.81;;;26.24;58.11
61674;BME280;47573;43.832;5.974;2023-04-30T19:27:40;94893.69;;;26.30;58.41
61674;BME280;47573;43.832;5.974;2023-04-30T19:34:22;94902.16;;;26.28;58.75
61674;BME280;47573;43.832;5.974;2023-04-30T19:41:02;94910.66;;;26.32;59.08
61674;BME280;47573;43.832;5.974;2023-04-30T19:47:43;94916.13;;;26.32;60.00
61674;BME280;47573;43.832;5.974;2023-04-30T19:54:25;94922.69;;;26.31;60.95
61674;BME280;47573;43.832;5.974;2023-04-30T20:01:06;94922.16;;;26.34;61.17
61674;BME280;47573;43.832;5.974;2023-04-30T20:07:46;94930.34;;;26.39;61.45
61674;BME280;47573;43.832;5.974;2023-04-30T20:14:28;94933.63;;;26.31;61.89
61674;BME280;47573;43.832;5.974;2023-04-30T20:21:09;94935.84;;;26.29;61.84
61674;BME280;47573;43.832;5.974;2023-04-30T20:27:49;94943.50;;;26.27;61.83
61674;BME280;47573;43.832;5.974;2023-04-30T20:34:31;94941.31;;;26.29;61.81
61674;BME280;47573;43.832;5.974;2023-04-30T20:41:11;94943.50;;;26.27;61.60
61674;BME280;47573;43.832;5.974;2023-04-30T20:47:52;94958.81;;;26.33;61.70
61674;BME280;47573;43.832;5.974;2023-04-30T20:54:34;94961.56;;;26.28;62.39
61674;BME280;47573;43.832;5.974;2023-04-30T21:01:14;94948.69;;;26.23;62.17
61674;BME280;47573;43.832;5.974;2023-04-30T21:07:55;94958.28;;;26.21;62.06
61674;BME280;47573;43.832;5.974;2023-04-30T21:14:37;94957.72;;;26.19;62.38
61674;BME280;47573;43.832;5.974;2023-04-30T21:21:17;94967.00;;;26.18;62.39
61674;BME280;47573;43.832;5.974;2023-04-30T21:27:58;94961.53;;;26.18;62.27
61674;BME280;47573;43.832;5.974;2023-04-30T21:34:40;94969.19;;;26.16;62.29
61674;BME280;47573;43.832;5.974;2023-04-30T21:41:20;94951.16;;;26.15;62.18
61674;BME280;47573;43.832;5.974;2023-04-30T21:48:01;94942.38;;;26.13;61.91
61674;BME280;47573;43.832;5.974;2023-04-30T21:54:42;94939.09;;;26.16;61.83
61674;BME280;47573;43.832;5.974;2023-04-30T22:01:23;94935.25;;;26.12;62.05
61674;BME280;47573;43.832;5.974;2023-04-30T22:08:04;94937.44;;;26.10;61.87
61674;BME280;47573;43.832;5.974;2023-04-30T22:14:45;94938.50;;;26.04;62.29
61674;BME280;47573;43.832;5.974;2023-04-30T22:21:26;94941.78;;;26.06;62.13
61674;BME280;47573;43.832;5.974;2023-04-30T22:28:07;94939.06;;;26.01;61.95
61674;BME280;47573;43.832;5.974;2023-04-30T22:34:49;94951.63;;;26.02;61.91
61674;BME280;47573;43.832;5.974;2023-04-30T22:41:29;94940.13;;;26.00;61.93
61674;BME280;47573;43.832;5.974;2023-04-30T22:48:10;94948.34;;;26.00;62.22
61674;BME280;47573;43.832;5.974;2023-04-30T22:54:51;94957.66;;;25.99;61.78
61674;BME280;47573;43.832;5.974;2023-04-30T23:01:32;94954.38;;;25.97;61.84
61674;BME280;47573;43.832;5.974;2023-04-30T23:08:12;94948.34;;;25.95;61.91
61674;BME280;47573;43.832;5.974;2023-04-30T23:14:54;94950.25;;;25.94;61.83
61674;BME280;47573;43.832;5.974;2023-04-30T23:21:35;94942.34;;;25.93;61.80
61674;BME280;47573;43.832;5.974;2023-04-30T23:28:16;94946.41;;;25.95;61.70
61674;BME280;47573;43.832;5.974;2023-04-30T23:34:57;94925.94;;;25.93;61.56
61674;BME280;47573;43.832;5.974;2023-04-30T23:41:38;94924.25;;;25.92;61.79
61674;BME280;47573;43.832;5.974;2023-04-30T23:48:18;94929.19;;;25.90;61.86
61674;BME280;47573;43.832;5.974;2023-04-30T23:55:00;94922.06;;;25.89;61.49
